Terminal Aerodrome Forecast
Issued by NWS

Home | Current Version | Previous Version | Text Only | Print | Product List | Glossary On
Versions: 1 2 3 4 5 6 7 8 9 10 11 12 13 14 15 16 17 18 19 20 21 22 23 24 25 26 27 28 29 30 31 32 33 34 35 36
000
FTUS45 KSLC 301140
TAFPVU
TAF
KPVU 301140Z 3012/3112 33006KT P6SM VCSH SCT040 BKN060
      TEMPO 3012/3014 5SM -SHRA SCT025 BKN040
     FM301700 31009KT P6SM SCT050 BKN080
     FM310000 31007KT 6SM -SHRA SCT025 BKN040
      AMD LTD TO CLD VIS AND WIND=

USA.gov is the U.S. government's official web portal to all federal, state and local government web resources and services.